Time;durP1;ratioP1;P1;durP2;ratioP2;P2;SDS_P1;SDS_P2;PMS_P1;PMS_P2;Temp;Humidity;BMP_temperature;BMP_pressure;BME280_temperature;BME280_humidity;BME280_pressure;Samples;Min_cycle;Max_cycle;Signal;HPM_P1;HPM_P2
2022/01/09 00:00:25;;;;;;;33.55;17.58;;;;;;;6.37;34.99;98922.69;4457467;32;33483;-62
2022/01/09 00:02:53;;;;;;;31.77;21.62;;;;;;;6.29;36.03;98916.13;4454065;32;33147;-61
2022/01/09 00:05:22;;;;;;;30.08;20.23;;;;;;;6.40;35.14;98911.84;4462108;32;34022;-61
2022/01/09 00:07:51;;;;;;;27.17;17.92;;;;;;;6.60;34.47;98913.06;4455916;32;33887;-64
2022/01/09 00:10:20;;;;;;;23.45;13.38;;;;;;;6.57;34.29;98908.81;4460370;32;33385;-63
2022/01/09 00:12:47;;;;;;;23.12;13.35;;;;;;;6.40;34.79;98907.38;4455076;32;33638;-62
2022/01/09 00:15:15;;;;;;;20.90;13.77;;;;;;;6.00;35.27;98909.28;4451699;32;35270;-62
2022/01/09 00:17:43;;;;;;;16.12;9.90;;;;;;;6.04;35.17;98910.81;4452949;32;34911;-61
2022/01/09 00:20:12;;;;;;;19.62;12.18;;;;;;;5.99;35.20;98908.47;4459612;32;34169;-61
2022/01/09 00:25:13;;;;;;;24.90;18.05;;;;;;;5.60;36.05;98891.62;4455752;32;34046;-61
2022/01/09 00:27:40;;;;;;;30.85;18.67;;;;;;;5.70;35.81;98885.69;4460537;32;33563;-61
2022/01/09 00:30:10;;;;;;;27.83;18.48;;;;;;;5.70;36.00;98885.69;4452334;32;34994;-62
2022/01/09 00:32:38;;;;;;;27.52;13.50;;;;;;;5.65;35.90;98877.16;4451703;32;33569;-63
2022/01/09 00:35:07;;;;;;;21.17;14.00;;;;;;;5.25;36.50;98878.06;4455396;32;35191;-62
2022/01/09 00:37:35;;;;;;;16.87;11.63;;;;;;;5.35;36.48;98873.84;4451588;32;32484;-63
2022/01/09 00:40:05;;;;;;;17.37;11.65;;;;;;;5.67;35.86;98875.28;4452527;32;33457;-64
2022/01/09 00:42:33;;;;;;;19.02;11.57;;;;;;;5.48;36.18;98875.66;4456740;32;33819;-63
2022/01/09 00:45:01;;;;;;;15.40;9.95;;;;;;;5.58;36.07;98877.59;4457042;32;34463;-66
2022/01/09 00:47:28;;;;;;;16.85;9.30;;;;;;;5.43;36.42;98877.81;4458341;32;33745;-64
2022/01/09 00:49:56;;;;;;;19.42;10.77;;;;;;;5.57;36.11;98875.06;4448525;32;33072;-65
2022/01/09 00:52:23;;;;;;;17.60;8.95;;;;;;;5.23;38.22;98865.84;4451972;32;31419;-63
2022/01/09 00:54:51;;;;;;;15.15;7.68;;;;;;;4.97;38.19;98864.94;4453426;32;34966;-66
2022/01/09 00:57:19;;;;;;;14.38;9.05;;;;;;;5.42;37.40;98854.84;4455721;32;34559;-65
2022/01/09 00:59:46;;;;;;;19.83;10.77;;;;;;;5.08;38.71;98852.66;4456376;32;32229;-66
2022/01/09 01:02:14;;;;;;;13.10;7.65;;;;;;;5.61;36.62;98850.84;4457177;32;34982;-65
2022/01/09 01:04:42;;;;;;;21.58;9.38;;;;;;;5.36;37.84;98854.34;4457244;32;33756;-65
2022/01/09 01:07:11;;;;;;;16.37;9.48;;;;;;;5.63;37.11;98837.47;4460520;32;34809;-65
2022/01/09 01:09:38;;;;;;;12.20;8.60;;;;;;;6.03;34.94;98840.03;4462523;32;34079;-64
2022/01/09 01:12:06;;;;;;;14.25;8.23;;;;;;;6.06;35.07;98832.69;4461299;32;32060;-66
2022/01/09 01:14:34;;;;;;;21.37;12.02;;;;;;;6.11;35.52;98828.88;4461285;32;34032;-64
2022/01/09 01:17:02;;;;;;;15.13;8.77;;;;;;;6.09;35.29;98820.16;4464762;32;34460;-66
2022/01/09 01:19:29;;;;;;;17.87;9.40;;;;;;;6.17;35.07;98821.31;4460707;32;32208;-65
2022/01/09 01:22:13;;;;;;;14.65;9.00;;;;;;;6.01;35.93;98823.34;4465550;32;34953;-65
2022/01/09 01:24:42;;;;;;;18.90;8.60;;;;;;;6.21;35.33;98820.13;4459368;32;32554;-66
2022/01/09 01:27:10;;;;;;;15.85;8.85;;;;;;;6.17;36.13;98804.53;4461084;32;33677;-66
2022/01/09 01:29:38;;;;;;;20.37;11.48;;;;;;;6.29;35.77;98803.63;4462057;32;33372;-64
2022/01/09 01:32:06;;;;;;;17.37;9.52;;;;;;;6.43;34.95;98798.16;4460217;32;33535;-63
2022/01/09 01:34:34;;;;;;;22.17;13.70;;;;;;;6.33;35.63;98794.50;4458981;32;34660;-65
2022/01/09 01:37:02;;;;;;;17.12;10.57;;;;;;;6.05;36.34;98790.31;4459634;32;33697;-65
2022/01/09 01:39:30;;;;;;;23.58;15.57;;;;;;;6.12;35.73;98786.25;4463654;32;32308;-64
2022/01/09 01:41:58;;;;;;;17.87;11.38;;;;;;;6.15;35.38;98791.34;4459495;32;32332;-64
2022/01/09 01:44:38;;;;;;;22.45;12.27;;;;;;;6.29;34.96;98777.91;4464595;32;33671;-64
2022/01/09 01:47:06;;;;;;;20.98;11.80;;;;;;;6.12;35.36;98774.78;4464254;32;34388;-65
2022/01/09 01:49:34;;;;;;;19.65;11.65;;;;;;;5.99;35.27;98772.13;4462187;32;33004;-63
2022/01/09 01:52:03;;;;;;;15.43;11.05;;;;;;;6.03;35.73;98776.28;4458234;32;33796;-65
2022/01/09 01:54:32;;;;;;;17.87;12.60;;;;;;;5.60;37.18;98773.97;4458178;32;34065;-64
2022/01/09 01:57:00;;;;;;;28.83;18.08;;;;;;;5.76;37.13;98771.94;4456556;32;33632;-65
2022/01/09 01:59:28;;;;;;;17.77;11.48;;;;;;;5.43;37.67;98766.34;4461416;32;34706;-63
2022/01/09 02:01:55;;;;;;;17.02;11.12;;;;;;;5.82;36.75;98768.84;4462699;32;33525;-64
2022/01/09 02:04:23;;;;;;;22.60;13.30;;;;;;;6.04;35.64;98762.03;4467555;32;34370;-64
2022/01/09 02:06:51;;;;;;;24.98;11.90;;;;;;;5.94;35.51;98760.97;4466519;32;34741;-66
2022/01/09 02:09:18;;;;;;;18.40;12.55;;;;;;;6.01;35.67;98762.25;4466624;32;34197;-67
2022/01/09 02:11:46;;;;;;;18.35;11.27;;;;;;;5.95;35.96;98754.72;4460745;32;34122;-65
2022/01/09 02:14:14;;;;;;;22.13;14.20;;;;;;;6.08;35.31;98758.19;4459170;32;33860;-64
2022/01/09 02:16:42;;;;;;;20.58;8.68;;;;;;;6.06;35.46;98752.97;4458925;32;32538;-65
2022/01/09 02:19:15;;;;;;;19.50;10.35;;;;;;;6.19;35.11;98750.28;4457502;32;33218;-64
2022/01/09 02:21:46;;;;;;;19.70;9.93;;;;;;;6.09;35.70;98749.25;4457582;32;32827;-65
2022/01/09 02:24:14;;;;;;;17.85;10.38;;;;;;;5.99;35.27;98742.91;4460335;32;34173;-63
2022/01/09 02:26:42;;;;;;;25.10;18.23;;;;;;;5.86;35.56;98734.09;4465878;32;33809;-63
2022/01/09 02:29:10;;;;;;;18.23;12.18;;;;;;;5.92;35.21;98741.63;4465495;32;32003;-65
2022/01/09 02:31:40;;;;;;;14.50;10.00;;;;;;;5.90;35.10;98735.56;4457679;32;33781;-65
2022/01/09 02:34:07;;;;;;;19.33;11.43;;;;;;;5.86;34.82;98736.75;4462984;32;34191;-64
2022/01/09 02:36:35;;;;;;;21.83;13.45;;;;;;;5.79;35.17;98737.19;4460224;32;33746;-63
2022/01/09 02:39:03;;;;;;;20.60;9.98;;;;;;;5.78;35.48;98738.16;4464155;32;34444;-64
2022/01/09 02:41:31;;;;;;;17.65;9.60;;;;;;;5.52;36.64;98733.81;4456422;32;34714;-67
2022/01/09 02:44:06;;;;;;;28.02;15.05;;;;;;;5.63;35.42;98727.78;4463875;32;33311;-66
2022/01/09 02:46:56;;;;;;;29.25;16.90;;;;;;;5.58;35.32;98728.09;4460665;32;32668;-66
2022/01/09 02:49:26;;;;;;;21.98;11.38;;;;;;;5.51;35.59;98727.66;4464795;32;33428;-71
2022/01/09 02:51:54;;;;;;;33.67;18.73;;;;;;;5.46;35.55;98727.16;4461901;32;33046;-67
2022/01/09 02:57:09;;;;;;;28.83;15.48;;;;;;;5.34;35.97;98723.56;4464144;32;34466;-65
2022/01/09 02:59:36;;;;;;;26.67;12.68;;;;;;;5.22;35.95;98724.41;4466188;32;32214;-67
2022/01/09 03:02:04;;;;;;;27.42;12.13;;;;;;;5.23;36.12;98717.28;4464975;32;33978;-66
2022/01/09 03:04:32;;;;;;;23.20;14.30;;;;;;;5.23;35.84;98722.59;4462859;32;32926;-67
2022/01/09 03:06:59;;;;;;;28.45;14.65;;;;;;;5.29;35.83;98716.84;4464166;32;33910;-67
2022/01/09 03:09:27;;;;;;;22.80;13.40;;;;;;;5.54;34.74;98716.00;4464221;32;33442;-67
2022/01/09 03:11:55;;;;;;;19.08;10.48;;;;;;;5.61;34.53;98702.16;4465787;32;33548;-66
2022/01/09 03:14:22;;;;;;;20.02;13.73;;;;;;;5.25;36.66;98707.44;4466293;32;35284;-70
2022/01/09 03:16:50;;;;;;;26.45;14.63;;;;;;;5.86;35.46;98700.44;4465811;32;33732;-66
2022/01/09 03:19:17;;;;;;;25.25;17.65;;;;;;;5.61;36.36;98701.31;4464596;32;33058;-65
2022/01/09 03:21:45;;;;;;;20.85;15.52;;;;;;;5.80;35.69;98700.88;4465271;32;33762;-65
2022/01/09 03:24:12;;;;;;;26.50;20.37;;;;;;;6.17;34.57;98693.78;4465483;32;34088;-65
2022/01/09 03:26:40;;;;;;;28.20;18.77;;;;;;;6.69;33.72;98686.38;4464931;32;34498;-68
2022/01/09 03:29:07;;;;;;;22.58;16.05;;;;;;;6.81;33.42;98687.28;4465322;32;33395;-69
2022/01/09 03:31:35;;;;;;;26.40;18.50;;;;;;;7.14;32.75;98694.47;4464805;32;35034;-68
2022/01/09 03:34:03;;;;;;;29.77;21.05;;;;;;;7.07;32.65;98694.09;4464913;32;34765;-69
2022/01/09 03:36:31;;;;;;;28.62;20.23;;;;;;;7.19;32.80;98692.28;4464534;32;33811;-66
2022/01/09 03:38:58;;;;;;;26.62;18.83;;;;;;;7.40;31.96;98687.12;4463347;32;33284;-65
2022/01/09 03:41:27;;;;;;;29.27;21.75;;;;;;;7.54;32.01;98681.53;4465148;32;34453;-64
2022/01/09 03:43:54;;;;;;;29.95;20.83;;;;;;;7.63;31.46;98682.63;4464566;32;34102;-65
2022/01/09 03:46:21;;;;;;;31.35;20.35;;;;;;;7.74;31.61;98685.31;4461560;32;35703;-65
2022/01/09 03:48:49;;;;;;;32.10;22.77;;;;;;;7.63;31.21;98690.63;4463947;32;33610;-64
2022/01/09 03:51:17;;;;;;;31.05;22.42;;;;;;;7.84;31.41;98688.91;4465751;32;33984;-62
2022/01/09 03:53:44;;;;;;;34.13;24.33;;;;;;;8.12;30.17;98692.00;4463477;32;33956;-64
2022/01/09 03:56:12;;;;;;;31.33;21.62;;;;;;;8.36;29.54;98684.66;4464463;32;33951;-64
2022/01/09 03:58:40;;;;;;;29.77;22.23;;;;;;;8.46;29.12;98686.59;4463826;32;33232;-63
2022/01/09 04:01:08;;;;;;;30.15;22.90;;;;;;;8.42;29.44;98678.03;4464828;32;34077;-63
2022/01/09 04:03:36;;;;;;;32.22;22.25;;;;;;;8.27;30.24;98673.91;4463079;32;34957;-65
2022/01/09 04:06:04;;;;;;;29.70;21.92;;;;;;;8.23;30.71;98665.31;4465140;32;35014;-62
2022/01/09 04:08:33;;;;;;;31.35;23.20;;;;;;;8.58;29.07;98666.91;4458552;32;33601;-66
2022/01/09 04:11:03;;;;;;;33.25;23.58;;;;;;;8.06;30.10;98664.03;4464517;32;34182;-66
2022/01/09 04:13:32;;;;;;;38.42;23.83;;;;;;;8.20;29.76;98649.56;4458741;32;33100;-62
2022/01/09 04:15:59;;;;;;;34.35;24.58;;;;;;;8.19;29.92;98649.72;4461891;32;32415;-63
2022/01/09 04:18:28;;;;;;;33.72;23.55;;;;;;;8.19;30.08;98649.72;4458575;32;34705;-66
2022/01/09 04:20:56;;;;;;;30.37;22.08;;;;;;;8.30;29.58;98653.19;4463721;32;33853;-63
2022/01/09 04:23:24;;;;;;;28.20;21.55;;;;;;;8.23;30.18;98644.00;4464040;32;33693;-65
2022/01/09 04:25:52;;;;;;;29.35;21.75;;;;;;;7.97;30.84;98642.63;4462491;32;33001;-64
2022/01/09 04:28:19;;;;;;;30.10;22.87;;;;;;;8.02;30.90;98638.59;4463192;32;34631;-65
2022/01/09 04:30:47;;;;;;;31.17;23.50;;;;;;;8.29;29.77;98642.66;4464403;32;32592;-64
2022/01/09 04:33:15;;;;;;;22.00;13.40;;;;;;;8.35;28.59;98644.81;4465196;32;35158;-66
2022/01/09 04:35:43;;;;;;;27.85;22.13;;;;;;;8.02;29.13;98646.59;4467266;32;34876;-64
2022/01/09 04:38:10;;;;;;;29.83;22.70;;;;;;;7.80;29.29;98643.97;4466464;32;33426;-64
2022/01/09 04:40:38;;;;;;;29.50;21.42;;;;;;;7.67;29.78;98641.47;4465158;32;34878;-67
2022/01/09 04:43:08;;;;;;;21.75;11.43;;;;;;;7.67;29.46;98644.13;4461224;32;34327;-67
2022/01/09 04:45:36;;;;;;;25.98;15.88;;;;;;;7.72;29.59;98636.63;4466316;32;35514;-65
2022/01/09 04:48:07;;;;;;;28.90;22.45;;;;;;;7.81;29.55;98629.72;4465919;32;34164;-65
2022/01/09 04:50:37;;;;;;;29.92;23.73;;;;;;;7.96;29.63;98628.47;4465597;32;33681;-64
2022/01/09 04:53:07;;;;;;;30.48;22.05;;;;;;;7.89;29.85;98632.59;4466557;32;35132;-64
2022/01/09 04:55:41;;;;;;;30.80;24.58;;;;;;;8.20;28.57;98638.06;4466132;32;33520;-64
2022/01/09 04:58:09;;;;;;;40.67;27.90;;;;;;;7.98;29.79;98634.50;4466344;32;33361;-65
2022/01/09 05:00:39;;;;;;;37.67;28.77;;;;;;;7.81;30.61;98635.03;4464596;32;33929;-65
2022/01/09 05:03:08;;;;;;;31.45;18.17;;;;;;;8.03;29.61;98629.66;4466424;32;33353;-67
2022/01/09 05:05:36;;;;;;;30.98;23.62;;;;;;;8.19;28.97;98629.25;4463488;32;33979;-64
2022/01/09 05:08:04;;;;;;;36.72;26.27;;;;;;;8.33;28.82;98630.75;4466391;32;33515;-64
2022/01/09 05:10:31;;;;;;;28.95;23.33;;;;;;;8.30;29.14;98626.50;4464784;32;34863;-64
2022/01/09 05:12:59;;;;;;;27.25;18.75;;;;;;;7.28;31.10;98635.69;4466307;32;33918;-65
2022/01/09 05:15:27;;;;;;;26.62;20.95;;;;;;;7.85;29.78;98639.97;4463950;32;34468;-64
2022/01/09 05:17:59;;;;;;;30.12;22.73;;;;;;;7.93;29.80;98639.38;4466940;32;33460;-64
2022/01/09 05:20:27;;;;;;;26.85;19.60;;;;;;;7.93;29.89;98648.22;4462954;32;34838;-64
2022/01/09 05:22:55;;;;;;;28.20;20.23;;;;;;;7.49;31.02;98637.63;4465104;32;33712;-65
2022/01/09 05:25:22;;;;;;;26.25;20.08;;;;;;;7.87;29.99;98639.88;4464989;32;35424;-65
2022/01/09 05:27:50;;;;;;;28.60;19.27;;;;;;;8.05;29.56;98638.34;4466580;32;34598;-64
2022/01/09 05:30:18;;;;;;;24.50;19.98;;;;;;;7.01;31.27;98644.03;4476398;32;33816;-64
2022/01/09 05:32:45;;;;;;;24.35;18.55;;;;;;;7.33;31.00;98643.31;4465435;32;35211;-64
2022/01/09 05:35:14;;;;;;;26.25;19.70;;;;;;;7.66;30.15;98640.62;4463980;32;34846;-64
2022/01/09 05:37:42;;;;;;;28.15;21.12;;;;;;;7.83;29.42;98639.28;4467133;32;33293;-64
2022/01/09 05:40:10;;;;;;;27.83;19.83;;;;;;;7.98;28.89;98633.66;4463630;32;33635;-64
2022/01/09 05:42:38;;;;;;;26.42;18.42;;;;;;;8.00;28.79;98627.25;4465276;32;31865;-66
2022/01/09 05:45:08;;;;;;;25.85;17.40;;;;;;;7.51;30.38;98627.69;4464124;32;34939;-64
2022/01/09 05:47:35;;;;;;;24.83;18.90;;;;;;;7.88;28.32;98628.22;4466870;32;32023;-66
2022/01/09 05:50:06;;;;;;;28.38;21.37;;;;;;;7.68;29.87;98635.19;4465919;32;34296;-65
2022/01/09 05:52:34;;;;;;;25.12;17.62;;;;;;;7.44;28.55;98624.66;4460959;32;34154;-64
2022/01/09 05:55:02;;;;;;;23.80;17.17;;;;;;;7.56;28.23;98623.69;4463985;32;33942;-64
2022/01/09 05:57:30;;;;;;;32.55;22.58;;;;;;;7.47;28.68;98617.28;4461131;32;34605;-67
2022/01/09 05:59:58;;;;;;;21.30;12.98;;;;;;;7.58;28.55;98608.44;4465909;32;33805;-64
2022/01/09 06:02:25;;;;;;;48.05;32.17;;;;;;;7.60;28.54;98616.28;4461585;32;35000;-65
2022/01/09 06:04:53;;;;;;;82.28;46.53;;;;;;;7.67;27.99;98622.81;4466189;32;33717;-67
2022/01/09 06:07:21;;;;;;;58.28;38.22;;;;;;;7.66;28.09;98618.47;4465383;32;33473;-65
2022/01/09 06:09:48;;;;;;;44.05;31.33;;;;;;;7.39;28.77;98624.19;4464780;32;32649;-65
2022/01/09 06:12:16;;;;;;;28.48;18.52;;;;;;;7.52;29.23;98618.75;4465714;32;34072;-63
2022/01/09 06:14:43;;;;;;;40.00;27.80;;;;;;;7.17;29.58;98617.06;4462741;32;34758;-66
2022/01/09 06:17:12;;;;;;;35.20;25.65;;;;;;;7.49;28.21;98614.50;4466621;32;34618;-66
2022/01/09 06:19:40;;;;;;;42.05;18.87;;;;;;;7.59;28.44;98614.63;4464199;32;33753;-64
2022/01/09 06:22:08;;;;;;;36.13;25.70;;;;;;;7.35;29.02;98617.41;4466154;32;33718;-66
2022/01/09 06:24:35;;;;;;;36.50;25.25;;;;;;;7.43;28.99;98607.00;4460362;32;32612;-66
2022/01/09 06:27:03;;;;;;;28.23;19.42;;;;;;;7.57;28.40;98614.72;4468816;32;34655;-65
2022/01/09 06:29:31;;;;;;;25.10;15.90;;;;;;;7.51;28.94;98609.88;4465393;32;33733;-64
2022/01/09 06:31:58;;;;;;;24.17;14.75;;;;;;;7.51;28.37;98611.72;4467959;32;33563;-67
2022/01/09 06:34:26;;;;;;;23.27;15.02;;;;;;;6.80;30.76;98621.72;4467177;32;32582;-64
2022/01/09 06:36:54;;;;;;;23.42;16.25;;;;;;;7.40;29.10;98613.41;4467788;32;34305;-65
2022/01/09 06:39:21;;;;;;;23.27;13.98;;;;;;;7.35;28.17;98620.06;4467211;32;34773;-66
2022/01/09 06:41:49;;;;;;;20.33;14.25;;;;;;;7.19;28.58;98623.97;4466179;32;34042;-67
2022/01/09 06:44:17;;;;;;;26.30;20.25;;;;;;;7.11;28.90;98630.84;4467553;32;32435;-65
2022/01/09 06:46:44;;;;;;;27.40;16.00;;;;;;;7.28;28.74;98627.69;4466162;32;34564;-67
2022/01/09 06:49:12;;;;;;;30.37;21.33;;;;;;;7.44;28.15;98620.19;4463815;32;34883;-67
2022/01/09 06:51:40;;;;;;;25.62;17.55;;;;;;;7.52;28.43;98619.59;4467030;32;35757;-67
2022/01/09 06:54:08;;;;;;;22.00;14.63;;;;;;;7.86;28.13;98623.00;4466633;32;33879;-66
2022/01/09 06:56:35;;;;;;;19.60;13.70;;;;;;;8.06;28.25;98616.09;4465561;32;33489;-66
2022/01/09 06:59:03;;;;;;;31.23;21.20;;;;;;;8.51;27.55;98612.41;4466886;32;32491;-65
2022/01/09 07:01:31;;;;;;;21.10;14.02;;;;;;;9.06;26.79;98608.53;4460383;32;34040;-65
2022/01/09 07:03:59;;;;;;;31.70;23.30;;;;;;;9.54;25.57;98617.72;4468632;32;33655;-67
2022/01/09 07:06:26;;;;;;;23.80;13.77;;;;;;;9.49;26.73;98617.28;4464779;32;33824;-67
2022/01/09 07:08:54;;;;;;;27.52;22.35;;;;;;;9.75;25.80;98623.81;4468390;32;33989;-65
2022/01/09 07:11:22;;;;;;;30.12;21.95;;;;;;;10.11;25.22;98629.53;4465160;32;35210;-64
2022/01/09 07:13:49;;;;;;;35.40;26.30;;;;;;;10.98;24.50;98617.97;4466507;32;33468;-65
2022/01/09 07:16:17;;;;;;;34.63;26.52;;;;;;;11.31;24.04;98631.81;4466700;32;34680;-65
2022/01/09 07:18:45;;;;;;;76.87;46.22;;;;;;;11.15;24.50;98627.06;4468333;32;33871;-67
2022/01/09 07:21:12;;;;;;;52.70;34.92;;;;;;;11.07;25.16;98634.97;4464847;32;34129;-66
2022/01/09 07:23:40;;;;;;;47.38;35.10;;;;;;;11.51;24.58;98620.03;4467693;32;33788;-66
2022/01/09 07:26:07;;;;;;;57.65;39.22;;;;;;;11.40;24.77;98625.59;4467393;32;33239;-67
2022/01/09 07:28:35;;;;;;;50.60;36.08;;;;;;;11.22;24.77;98622.81;4467421;32;33276;-65
2022/01/09 07:31:02;;;;;;;47.08;34.40;;;;;;;10.57;25.79;98627.19;4465306;32;34860;-67
2022/01/09 07:33:33;;;;;;;56.03;38.30;;;;;;;10.54;26.04;98616.78;4467530;32;36009;-66
2022/01/09 07:36:01;;;;;;;48.83;39.25;;;;;;;10.92;25.76;98618.53;4467991;32;33391;-67
2022/01/09 07:38:28;;;;;;;48.80;37.17;;;;;;;10.85;26.20;98610.25;4467442;32;33780;-66
2022/01/09 07:40:57;;;;;;;46.60;37.20;;;;;;;10.49;27.07;98609.16;4467563;32;34430;-66
2022/01/09 07:43:24;;;;;;;49.60;37.65;;;;;;;10.40;27.46;98605.50;4464100;32;33891;-66
2022/01/09 07:45:52;;;;;;;55.03;40.58;;;;;;;10.99;26.65;98605.44;4464717;32;33033;-67
2022/01/09 07:48:23;;;;;;;52.85;38.72;;;;;;;12.12;25.26;98599.81;4466678;32;35102;-68
2022/01/09 07:50:51;;;;;;;57.45;40.00;;;;;;;12.21;25.17;98601.56;4467761;32;34005;-67
2022/01/09 07:53:23;;;;;;;59.38;40.12;;;;;;;12.52;24.82;98596.66;4466032;32;34494;-66
2022/01/09 07:55:52;;;;;;;57.92;38.25;;;;;;;12.34;24.81;98601.19;4465228;32;33445;-66
2022/01/09 07:58:19;;;;;;;47.50;34.22;;;;;;;12.04;25.19;98597.06;4466548;32;33954;-67
2022/01/09 08:00:47;;;;;;;42.20;31.05;;;;;;;12.31;24.95;98609.56;4464552;32;35394;-66
2022/01/09 08:03:15;;;;;;;39.17;30.30;;;;;;;12.76;24.46;98608.59;4465654;32;35269;-67
2022/01/09 08:05:43;;;;;;;40.17;30.62;;;;;;;12.16;25.12;98609.22;4468027;32;33718;-66
2022/01/09 08:08:11;;;;;;;42.55;30.15;;;;;;;12.03;26.23;98606.91;4467801;32;33898;-67
2022/01/09 08:10:38;;;;;;;44.45;32.25;;;;;;;11.94;26.17;98599.81;4469519;32;33996;-65
2022/01/09 08:13:06;;;;;;;42.62;31.45;;;;;;;11.31;27.18;98605.03;4468567;32;34592;-66
2022/01/09 08:15:33;;;;;;;37.35;29.10;;;;;;;10.72;28.50;98598.97;4465714;32;31967;-67
2022/01/09 08:18:01;;;;;;;40.38;30.08;;;;;;;10.29;29.25;98602.97;4468142;32;33946;-67
2022/01/09 08:20:29;;;;;;;38.22;28.20;;;;;;;10.89;28.32;98605.44;4463869;32;35178;-67
2022/01/09 08:22:57;;;;;;;33.90;26.95;;;;;;;11.09;28.97;98592.84;4467051;32;33738;-67
2022/01/09 08:25:25;;;;;;;37.08;27.58;;;;;;;11.24;29.08;98588.72;4469558;32;34075;-66
2022/01/09 08:27:52;;;;;;;37.33;29.08;;;;;;;12.50;26.59;98587.91;4467074;32;33767;-66
2022/01/09 08:30:20;;;;;;;35.33;27.15;;;;;;;12.64;26.41;98586.50;4468513;32;34158;-65
2022/01/09 08:32:49;;;;;;;34.53;26.77;;;;;;;13.38;25.89;98592.38;4466729;32;34743;-65
2022/01/09 08:35:17;;;;;;;35.88;28.90;;;;;;;12.84;26.22;98595.25;4468108;32;34349;-66
2022/01/09 08:37:45;;;;;;;36.78;27.52;;;;;;;13.07;26.12;98592.03;4466552;32;33885;-64
2022/01/09 08:40:19;;;;;;;37.03;27.37;;;;;;;12.93;25.93;98596.13;4466235;32;34513;-65
2022/01/09 08:42:47;;;;;;;39.00;30.55;;;;;;;13.19;25.90;98609.53;4460845;32;34798;-64
2022/01/09 08:45:16;;;;;;;42.10;30.62;;;;;;;12.82;26.00;98613.34;4465984;32;33950;-66
2022/01/09 08:47:44;;;;;;;39.10;30.40;;;;;;;12.76;26.23;98617.47;4464329;32;32471;-64
2022/01/09 08:50:14;;;;;;;38.70;30.20;;;;;;;13.02;26.12;98608.59;4466998;32;34162;-65
2022/01/09 08:52:41;;;;;;;46.78;34.42;;;;;;;13.67;25.22;98605.44;4465172;32;33902;-64
2022/01/09 08:55:09;;;;;;;51.25;38.75;;;;;;;12.47;27.05;98604.31;4466484;31;33351;-65
2022/01/09 08:57:37;;;;;;;38.80;31.55;;;;;;;12.88;26.52;98606.50;4465224;32;33905;-65
2022/01/09 09:00:05;;;;;;;39.35;31.00;;;;;;;11.67;28.25;98605.97;4465909;32;34061;-65
2022/01/09 09:02:33;;;;;;;40.83;30.05;;;;;;;12.24;27.54;98611.16;4465046;32;33907;-66
2022/01/09 09:05:01;;;;;;;46.35;36.17;;;;;;;12.55;27.30;98607.09;4466220;32;33327;-66
2022/01/09 09:07:28;;;;;;;40.90;33.33;;;;;;;12.30;27.54;98599.81;4465365;32;34708;-66
2022/01/09 09:10:03;;;;;;;38.60;32.72;;;;;;;11.41;29.34;98603.16;4465542;32;34160;-67
2022/01/09 09:12:32;;;;;;;43.13;30.92;;;;;;;10.82;29.94;98607.00;4459682;32;33997;-67
2022/01/09 09:15:01;;;;;;;42.10;30.80;;;;;;;10.98;30.23;98609.06;4460825;32;33818;-65
2022/01/09 09:17:28;;;;;;;39.70;31.52;;;;;;;10.45;30.89;98610.44;4460519;32;34985;-67
2022/01/09 09:19:56;;;;;;;41.55;32.25;;;;;;;11.13;30.32;98613.81;4467065;32;35251;-65
2022/01/09 09:22:24;;;;;;;38.63;30.65;;;;;;;11.60;29.71;98613.78;4465452;32;34984;-65
2022/01/09 09:24:52;;;;;;;41.85;32.13;;;;;;;12.43;28.22;98615.53;4466407;32;33505;-65
2022/01/09 09:27:20;;;;;;;36.75;29.65;;;;;;;12.03;28.36;98627.53;4460329;32;34788;-66
2022/01/09 09:29:48;;;;;;;39.13;29.30;;;;;;;12.29;28.33;98619.59;4466680;32;35141;-67
2022/01/09 09:32:15;;;;;;;37.47;29.23;;;;;;;12.02;28.45;98618.66;4464048;32;33689;-68
2022/01/09 09:34:43;;;;;;;38.67;29.15;;;;;;;12.52;27.92;98622.63;4465759;32;33407;-66
2022/01/09 09:37:11;;;;;;;40.35;31.52;;;;;;;12.89;27.51;98619.75;4464390;32;34099;-68
2022/01/09 09:39:39;;;;;;;42.17;32.65;;;;;;;12.35;28.60;98625.19;4466400;32;33453;-66
2022/01/09 09:42:08;;;;;;;50.35;37.70;;;;;;;13.38;26.93;98616.56;4462230;32;34656;-67
2022/01/09 09:44:36;;;;;;;45.97;34.17;;;;;;;12.91;27.84;98619.63;4466275;32;32161;-66
2022/01/09 09:47:05;;;;;;;42.33;31.62;;;;;;;13.05;27.84;98610.97;4464768;32;34933;-66
2022/01/09 09:49:33;;;;;;;43.33;33.08;;;;;;;12.11;28.92;98617.75;4464804;32;34297;-68
2022/01/09 09:52:00;;;;;;;39.60;30.73;;;;;;;11.64;29.59;98614.31;4463815;32;33497;-66
2022/01/09 09:54:28;;;;;;;40.20;29.73;;;;;;;11.75;29.47;98624.00;4465485;32;33565;-65
2022/01/09 09:56:57;;;;;;;40.03;30.83;;;;;;;11.76;29.14;98620.34;4464086;32;33722;-66
2022/01/09 09:59:28;;;;;;;39.92;30.27;;;;;;;11.06;30.48;98623.44;4461522;32;34057;-66
2022/01/09 10:01:55;;;;;;;36.35;28.98;;;;;;;10.52;30.65;98632.09;4463406;32;33236;-65
2022/01/09 10:04:23;;;;;;;37.50;28.05;;;;;;;11.94;29.13;98629.31;4464998;32;32396;-65
2022/01/09 10:06:51;;;;;;;36.72;28.02;;;;;;;12.25;28.86;98627.09;4466059;32;34707;-65
2022/01/09 10:09:20;;;;;;;43.70;29.55;;;;;;;11.65;29.27;98634.75;4465498;32;33551;-66
2022/01/09 10:11:54;;;;;;;38.05;28.38;;;;;;;12.65;28.03;98631.16;4465395;32;32381;-65
2022/01/09 10:14:24;;;;;;;38.50;28.73;;;;;;;11.77;28.65;98628.22;4464812;32;33311;-65
2022/01/09 10:17:12;;;;;;;39.40;29.12;;;;;;;13.38;26.82;98630.84;4465851;32;32737;-66
2022/01/09 10:19:46;;;;;;;36.97;27.92;;;;;;;12.41;28.50;98637.13;4464825;32;35278;-67
2022/01/09 10:22:37;;;;;;;38.28;30.83;;;;;;;12.96;27.63;98625.34;4466265;32;34120;-65
2022/01/09 10:25:23;;;;;;;38.78;29.30;;;;;;;11.97;28.37;98625.44;4463830;32;34501;-66
2022/01/09 10:27:59;;;;;;;38.80;28.80;;;;;;;11.97;28.78;98630.81;4464668;32;34879;-66
2022/01/09 10:30:36;;;;;;;38.60;31.27;;;;;;;12.99;27.92;98622.34;4465302;32;33920;-68
2022/01/09 10:33:09;;;;;;;36.65;28.70;;;;;;;10.16;31.53;98627.28;4463070;32;33876;-68
2022/01/09 10:35:38;;;;;;;37.63;29.35;;;;;;;12.71;28.53;98618.94;4461454;32;34182;-66
2022/01/09 10:38:11;;;;;;;39.17;30.35;;;;;;;12.02;29.08;98615.13;4463345;32;33952;-66
2022/01/09 10:40:40;;;;;;;40.03;31.48;;;;;;;12.18;29.01;98607.25;4460912;32;34197;-66
2022/01/09 10:43:17;;;;;;;38.90;28.98;;;;;;;11.33;30.15;98609.25;4462788;32;33662;-68
2022/01/09 10:45:56;;;;;;;36.95;29.00;;;;;;;12.02;29.05;98610.59;4462070;32;34666;-66
2022/01/09 10:48:26;;;;;;;43.97;30.73;;;;;;;11.61;30.54;98593.19;4464311;32;34754;-67
2022/01/09 10:50:54;;;;;;;69.55;48.28;;;;;;;11.72;29.87;98593.00;4466056;32;34973;-66
2022/01/09 10:53:33;;;;;;;41.15;29.87;;;;;;;11.56;30.18;98590.13;4464164;32;33827;-66
2022/01/09 10:56:05;;;;;;;36.92;28.45;;;;;;;11.60;30.10;98584.31;4463213;32;33669;-67
2022/01/09 10:58:35;;;;;;;42.03;30.70;;;;;;;11.43;30.98;98593.16;4459430;32;32546;-66
2022/01/09 11:01:23;;;;;;;41.42;30.17;;;;;;;12.02;30.15;98581.09;4465198;32;35517;-65
2022/01/09 11:03:54;;;;;;;37.85;28.42;;;;;;;11.93;29.91;98579.31;4463810;32;35016;-68
2022/01/09 11:06:27;;;;;;;35.08;25.77;;;;;;;11.00;31.23;98586.53;4465180;32;35540;-67
2022/01/09 11:08:56;;;;;;;37.63;26.50;;;;;;;11.70;29.73;98580.72;4464581;32;34951;-65
2022/01/09 11:11:33;;;;;;;37.88;28.55;;;;;;;8.92;34.00;98578.66;4465070;32;33880;-65
2022/01/09 11:14:04;;;;;;;37.15;27.77;;;;;;;11.38;31.26;98573.97;4461493;32;34872;-65
2022/01/09 11:16:33;;;;;;;40.65;28.98;;;;;;;11.35;31.04;98566.25;4461129;32;33532;-68
2022/01/09 11:19:02;;;;;;;36.08;27.62;;;;;;;11.17;31.23;98571.50;4464670;32;33834;-66
2022/01/09 11:21:30;;;;;;;36.13;27.40;;;;;;;11.78;30.05;98573.63;4460014;32;33669;-67
2022/01/09 11:24:01;;;;;;;31.60;24.50;;;;;;;11.45;30.54;98566.19;4463333;32;33687;-65
2022/01/09 11:26:48;;;;;;;38.47;28.12;;;;;;;11.76;30.38;98570.25;4461456;32;33672;-65
2022/01/09 11:29:20;;;;;;;35.25;26.58;;;;;;;10.48;32.28;98570.00;4472564;32;34891;-65
2022/01/09 11:32:07;;;;;;;30.37;24.45;;;;;;;9.66;32.98;98575.69;4460939;32;33851;-67
2022/01/09 11:34:53;;;;;;;33.70;25.02;;;;;;;11.42;30.13;98572.69;4458042;32;34494;-67